sim
Sign-in with your pilot id or email,
or register
Callsign
Passwort

Schedule Details

Flight Number: OEO6212
Departure: Zurich Airport (LSZH) at 11:15
Arrival: Fuerteventura Airport (GCFV) at 15:55

Weather Information
Getting current METAR information for LSZH 182020Z VRB03KT CAVOK 14/05 Q1022 NOSIG
Getting current METAR information for GCFV 182000Z 36016KT 9999 FEW045 18/11 Q1019

Schedule Frequency

Route Map